sensor_id;sensor_type;location;lat;lon;timestamp;P1;P2;P0
33948;PMS7003;20229;49.856;19.030;2024-02-23T00:04:33;3;3;2
33948;PMS7003;20229;49.856;19.030;2024-02-23T00:09:48;5;5;3
33948;PMS7003;20229;49.856;19.030;2024-02-23T00:15:02;4;4;3
33948;PMS7003;20229;49.856;19.030;2024-02-23T00:20:17;6;5;4
33948;PMS7003;20229;49.856;19.030;2024-02-23T00:25:34;6;5;4
33948;PMS7003;20229;49.856;19.030;2024-02-23T00:30:49;7;6;4
33948;PMS7003;20229;49.856;19.030;2024-02-23T00:36:04;4;4;2
33948;PMS7003;20229;49.856;19.030;2024-02-23T00:41:18;5;4;3
33948;PMS7003;20229;49.856;19.030;2024-02-23T00:46:32;5;5;3
33948;PMS7003;20229;49.856;19.030;2024-02-23T00:51:47;5;4;4
33948;PMS7003;20229;49.856;19.030;2024-02-23T00:57:01;6;4;3
33948;PMS7003;20229;49.856;19.030;2024-02-23T01:02:15;5;4;3
33948;PMS7003;20229;49.856;19.030;2024-02-23T01:07:29;7;4;3
33948;PMS7003;20229;49.856;19.030;2024-02-23T01:12:43;5;4;3
33948;PMS7003;20229;49.856;19.030;2024-02-23T01:17:57;5;4;2
33948;PMS7003;20229;49.856;19.030;2024-02-23T01:23:11;6;6;4
33948;PMS7003;20229;49.856;19.030;2024-02-23T01:28:25;5;5;3
33948;PMS7003;20229;49.856;19.030;2024-02-23T01:39:04;3;3;2
33948;PMS7003;20229;49.856;19.030;2024-02-23T01:44:18;2;2;1
33948;PMS7003;20229;49.856;19.030;2024-02-23T01:49:34;3;2;1
33948;PMS7003;20229;49.856;19.030;2024-02-23T01:54:49;3;3;1
33948;PMS7003;20229;49.856;19.030;2024-02-23T02:00:04;4;2;1
33948;PMS7003;20229;49.856;19.030;2024-02-23T02:05:26;2;2;1
33948;PMS7003;20229;49.856;19.030;2024-02-23T02:10:42;5;5;2
33948;PMS7003;20229;49.856;19.030;2024-02-23T02:16:00;2;2;1
33948;PMS7003;20229;49.856;19.030;2024-02-23T02:21:18;1;1;0
33948;PMS7003;20229;49.856;19.030;2024-02-23T02:26:38;2;2;1
33948;PMS7003;20229;49.856;19.030;2024-02-23T02:31:51;3;2;1
33948;PMS7003;20229;49.856;19.030;2024-02-23T02:37:06;3;2;2
33948;PMS7003;20229;49.856;19.030;2024-02-23T02:42:21;3;2;1
33948;PMS7003;20229;49.856;19.030;2024-02-23T02:47:35;1;1;0
33948;PMS7003;20229;49.856;19.030;2024-02-23T02:52:49;2;2;0
33948;PMS7003;20229;49.856;19.030;2024-02-23T02:58:03;2;2;1
33948;PMS7003;20229;49.856;19.030;2024-02-23T03:03:17;1;1;1
33948;PMS7003;20229;49.856;19.030;2024-02-23T03:08:31;2;2;1
33948;PMS7003;20229;49.856;19.030;2024-02-23T03:13:45;2;2;0
33948;PMS7003;20229;49.856;19.030;2024-02-23T03:18:59;4;2;1
33948;PMS7003;20229;49.856;19.030;2024-02-23T03:24:13;4;2;1
33948;PMS7003;20229;49.856;19.030;2024-02-23T03:29:27;1;1;0
33948;PMS7003;20229;49.856;19.030;2024-02-23T03:34:44;2;1;0
33948;PMS7003;20229;49.856;19.030;2024-02-23T03:40:01;2;1;0
33948;PMS7003;20229;49.856;19.030;2024-02-23T03:45:18;1;1;0
33948;PMS7003;20229;49.856;19.030;2024-02-23T03:50:32;3;2;0
33948;PMS7003;20229;49.856;19.030;2024-02-23T03:55:46;1;1;1
33948;PMS7003;20229;49.856;19.030;2024-02-23T04:01:02;1;1;0
33948;PMS7003;20229;49.856;19.030;2024-02-23T04:06:19;2;2;1
33948;PMS7003;20229;49.856;19.030;2024-02-23T04:11:33;2;1;0
33948;PMS7003;20229;49.856;19.030;2024-02-23T04:16:48;0;0;0
33948;PMS7003;20229;49.856;19.030;2024-02-23T04:22:02;1;1;0
33948;PMS7003;20229;49.856;19.030;2024-02-23T04:27:16;2;1;1
33948;PMS7003;20229;49.856;19.030;2024-02-23T04:32:30;1;0;0
33948;PMS7003;20229;49.856;19.030;2024-02-23T04:37:44;1;1;0
33948;PMS7003;20229;49.856;19.030;2024-02-23T04:43:00;1;1;0
33948;PMS7003;20229;49.856;19.030;2024-02-23T04:48:14;1;1;0
33948;PMS7003;20229;49.856;19.030;2024-02-23T04:53:28;0;0;0
33948;PMS7003;20229;49.856;19.030;2024-02-23T04:58:42;0;0;0
33948;PMS7003;20229;49.856;19.030;2024-02-23T05:04:00;0;0;0
33948;PMS7003;20229;49.856;19.030;2024-02-23T05:09:14;1;0;0
33948;PMS7003;20229;49.856;19.030;2024-02-23T05:14:28;0;0;0
33948;PMS7003;20229;49.856;19.030;2024-02-23T05:19:42;0;0;0
33948;PMS7003;20229;49.856;19.030;2024-02-23T05:24:59;0;0;0
33948;PMS7003;20229;49.856;19.030;2024-02-23T05:30:13;0;0;0
33948;PMS7003;20229;49.856;19.030;2024-02-23T05:35:27;0;0;0
33948;PMS7003;20229;49.856;19.030;2024-02-23T05:40:41;0;0;0
33948;PMS7003;20229;49.856;19.030;2024-02-23T05:45:57;1;0;0
33948;PMS7003;20229;49.856;19.030;2024-02-23T05:51:12;1;0;0
33948;PMS7003;20229;49.856;19.030;2024-02-23T05:56:25;0;0;0
33948;PMS7003;20229;49.856;19.030;2024-02-23T06:01:39;0;0;0
33948;PMS7003;20229;49.856;19.030;2024-02-23T06:06:55;0;0;0
33948;PMS7003;20229;49.856;19.030;2024-02-23T06:12:10;0;0;0
33948;PMS7003;20229;49.856;19.030;2024-02-23T06:17:25;0;0;0
33948;PMS7003;20229;49.856;19.030;2024-02-23T06:22:38;2;1;1
33948;PMS7003;20229;49.856;19.030;2024-02-23T06:27:52;1;1;0
33948;PMS7003;20229;49.856;19.030;2024-02-23T06:33:06;2;1;0
33948;PMS7003;20229;49.856;19.030;2024-02-23T06:38:20;0;0;0
33948;PMS7003;20229;49.856;19.030;2024-02-23T06:43:34;0;0;0
33948;PMS7003;20229;49.856;19.030;2024-02-23T06:48:48;0;0;0
33948;PMS7003;20229;49.856;19.030;2024-02-23T06:54:02;1;0;0
33948;PMS7003;20229;49.856;19.030;2024-02-23T06:59:17;0;0;0
33948;PMS7003;20229;49.856;19.030;2024-02-23T07:04:32;0;0;0
33948;PMS7003;20229;49.856;19.030;2024-02-23T07:09:47;0;0;0
33948;PMS7003;20229;49.856;19.030;2024-02-23T07:15:01;0;0;0
33948;PMS7003;20229;49.856;19.030;2024-02-23T07:20:15;0;0;0
33948;PMS7003;20229;49.856;19.030;2024-02-23T07:25:29;0;0;0
33948;PMS7003;20229;49.856;19.030;2024-02-23T07:30:44;0;0;0
33948;PMS7003;20229;49.856;19.030;2024-02-23T07:36:00;1;0;0
33948;PMS7003;20229;49.856;19.030;2024-02-23T07:41:14;0;0;0
33948;PMS7003;20229;49.856;19.030;2024-02-23T07:46:31;0;0;0
33948;PMS7003;20229;49.856;19.030;2024-02-23T07:51:46;0;0;0
33948;PMS7003;20229;49.856;19.030;2024-02-23T07:57:00;1;1;0
33948;PMS7003;20229;49.856;19.030;2024-02-23T08:02:14;1;1;0
33948;PMS7003;20229;49.856;19.030;2024-02-23T08:07:28;1;0;0
33948;PMS7003;20229;49.856;19.030;2024-02-23T08:12:47;1;0;0
33948;PMS7003;20229;49.856;19.030;2024-02-23T08:18:01;0;0;0
33948;PMS7003;20229;49.856;19.030;2024-02-23T08:23:15;0;0;0
33948;PMS7003;20229;49.856;19.030;2024-02-23T08:28:29;0;0;0
33948;PMS7003;20229;49.856;19.030;2024-02-23T08:33:43;0;0;0
33948;PMS7003;20229;49.856;19.030;2024-02-23T08:38:58;0;0;0
33948;PMS7003;20229;49.856;19.030;2024-02-23T08:44:12;0;0;0
33948;PMS7003;20229;49.856;19.030;2024-02-23T08:49:26;0;0;0
33948;PMS7003;20229;49.856;19.030;2024-02-23T08:54:41;0;0;0
33948;PMS7003;20229;49.856;19.030;2024-02-23T08:59:55;0;0;0
33948;PMS7003;20229;49.856;19.030;2024-02-23T09:05:11;0;0;0
33948;PMS7003;20229;49.856;19.030;2024-02-23T09:10:25;0;0;0
33948;PMS7003;20229;49.856;19.030;2024-02-23T09:15:39;0;0;0
33948;PMS7003;20229;49.856;19.030;2024-02-23T09:20:57;0;0;0
33948;PMS7003;20229;49.856;19.030;2024-02-23T09:26:11;0;0;0
33948;PMS7003;20229;49.856;19.030;2024-02-23T09:31:26;0;0;0
33948;PMS7003;20229;49.856;19.030;2024-02-23T09:36:42;0;0;0
33948;PMS7003;20229;49.856;19.030;2024-02-23T09:41:56;1;0;0
33948;PMS7003;20229;49.856;19.030;2024-02-23T09:47:10;0;0;0
33948;PMS7003;20229;49.856;19.030;2024-02-23T09:52:24;0;0;0
33948;PMS7003;20229;49.856;19.030;2024-02-23T09:57:43;0;0;0
33948;PMS7003;20229;49.856;19.030;2024-02-23T10:02:59;1;0;0
33948;PMS7003;20229;49.856;19.030;2024-02-23T10:08:13;0;0;0
33948;PMS7003;20229;49.856;19.030;2024-02-23T10:13:32;0;0;0
33948;PMS7003;20229;49.856;19.030;2024-02-23T10:18:57;0;0;0
33948;PMS7003;20229;49.856;19.030;2024-02-23T10:24:14;0;0;0
33948;PMS7003;20229;49.856;19.030;2024-02-23T10:29:30;0;0;0
33948;PMS7003;20229;49.856;19.030;2024-02-23T10:34:44;0;0;0
33948;PMS7003;20229;49.856;19.030;2024-02-23T10:40:04;1;1;0
33948;PMS7003;20229;49.856;19.030;2024-02-23T10:45:23;2;1;0
33948;PMS7003;20229;49.856;19.030;2024-02-23T10:50:37;1;0;0
33948;PMS7003;20229;49.856;19.030;2024-02-23T10:55:56;1;1;0
33948;PMS7003;20229;49.856;19.030;2024-02-23T11:01:15;1;1;0
33948;PMS7003;20229;49.856;19.030;2024-02-23T11:06:33;0;0;0
33948;PMS7003;20229;49.856;19.030;2024-02-23T11:11:51;0;0;0
33948;PMS7003;20229;49.856;19.030;2024-02-23T11:17:09;0;0;0
33948;PMS7003;20229;49.856;19.030;2024-02-23T11:22:34;0;0;0
33948;PMS7003;20229;49.856;19.030;2024-02-23T11:27:51;1;0;0
33948;PMS7003;20229;49.856;19.030;2024-02-23T11:33:07;0;0;0
33948;PMS7003;20229;49.856;19.030;2024-02-23T11:38:21;0;0;0
33948;PMS7003;20229;49.856;19.030;2024-02-23T11:43:35;0;0;0
33948;PMS7003;20229;49.856;19.030;2024-02-23T11:48:50;1;1;0
33948;PMS7003;20229;49.856;19.030;2024-02-23T11:54:07;0;0;0
33948;PMS7003;20229;49.856;19.030;2024-02-23T11:59:22;0;0;0
33948;PMS7003;20229;49.856;19.030;2024-02-23T12:09:57;0;0;0
33948;PMS7003;20229;49.856;19.030;2024-02-23T12:15:11;0;0;0
33948;PMS7003;20229;49.856;19.030;2024-02-23T12:20:28;0;0;0
33948;PMS7003;20229;49.856;19.030;2024-02-23T12:31:35;0;0;0
33948;PMS7003;20229;49.856;19.030;2024-02-23T12:36:49;1;0;0
33948;PMS7003;20229;49.856;19.030;2024-02-23T12:42:04;1;1;0
33948;PMS7003;20229;49.856;19.030;2024-02-23T12:47:18;1;1;0
33948;PMS7003;20229;49.856;19.030;2024-02-23T12:52:31;2;1;0
33948;PMS7003;20229;49.856;19.030;2024-02-23T12:57:46;2;1;0
33948;PMS7003;20229;49.856;19.030;2024-02-23T13:02:59;2;1;0
33948;PMS7003;20229;49.856;19.030;2024-02-23T13:08:17;0;0;0
33948;PMS7003;20229;49.856;19.030;2024-02-23T13:13:31;14;10;5
33948;PMS7003;20229;49.856;19.030;2024-02-23T13:18:46;7;4;2
33948;PMS7003;20229;49.856;19.030;2024-02-23T13:24:03;18;14;9
33948;PMS7003;20229;49.856;19.030;2024-02-23T13:29:19;13;13;9
33948;PMS7003;20229;49.856;19.030;2024-02-23T13:34:33;39;31;18
33948;PMS7003;20229;49.856;19.030;2024-02-23T13:39:48;41;32;20
33948;PMS7003;20229;49.856;19.030;2024-02-23T13:45:02;15;13;9
33948;PMS7003;20229;49.856;19.030;2024-02-23T13:50:17;11;10;6
33948;PMS7003;20229;49.856;19.030;2024-02-23T13:55:30;5;5;3
33948;PMS7003;20229;49.856;19.030;2024-02-23T14:00:44;6;4;2
33948;PMS7003;20229;49.856;19.030;2024-02-23T14:05:58;7;4;2
33948;PMS7003;20229;49.856;19.030;2024-02-23T14:11:14;19;15;9
33948;PMS7003;20229;49.856;19.030;2024-02-23T14:16:27;25;23;14
33948;PMS7003;20229;49.856;19.030;2024-02-23T14:21:41;26;23;15
33948;PMS7003;20229;49.856;19.030;2024-02-23T14:26:57;29;24;16
33948;PMS7003;20229;49.856;19.030;2024-02-23T14:37:32;34;28;20
33948;PMS7003;20229;49.856;19.030;2024-02-23T14:42:46;34;28;18
33948;PMS7003;20229;49.856;19.030;2024-02-23T14:48:04;31;27;18
33948;PMS7003;20229;49.856;19.030;2024-02-23T14:53:18;24;22;16
33948;PMS7003;20229;49.856;19.030;2024-02-23T14:58:32;34;28;17
33948;PMS7003;20229;49.856;19.030;2024-02-23T15:03:46;31;26;17
33948;PMS7003;20229;49.856;19.030;2024-02-23T15:09:01;32;28;17
33948;PMS7003;20229;49.856;19.030;2024-02-23T15:14:17;29;23;15
33948;PMS7003;20229;49.856;19.030;2024-02-23T15:19:31;25;23;15
33948;PMS7003;20229;49.856;19.030;2024-02-23T15:24:46;42;31;19
33948;PMS7003;20229;49.856;19.030;2024-02-23T15:30:04;42;32;19
33948;PMS7003;20229;49.856;19.030;2024-02-23T15:35:22;41;31;19
33948;PMS7003;20229;49.856;19.030;2024-02-23T15:40:40;40;31;19
33948;PMS7003;20229;49.856;19.030;2024-02-23T15:45:54;36;29;18
33948;PMS7003;20229;49.856;19.030;2024-02-23T15:51:08;30;24;15
33948;PMS7003;20229;49.856;19.030;2024-02-23T15:56:22;25;23;14
33948;PMS7003;20229;49.856;19.030;2024-02-23T16:01:36;34;28;17
33948;PMS7003;20229;49.856;19.030;2024-02-23T16:06:51;34;27;16
33948;PMS7003;20229;49.856;19.030;2024-02-23T16:12:05;32;26;16
33948;PMS7003;20229;49.856;19.030;2024-02-23T16:17:21;39;29;18
33948;PMS7003;20229;49.856;19.030;2024-02-23T16:22:35;39;32;21
33948;PMS7003;20229;49.856;19.030;2024-02-23T16:27:49;47;35;23
33948;PMS7003;20229;49.856;19.030;2024-02-23T16:33:03;45;35;22
33948;PMS7003;20229;49.856;19.030;2024-02-23T16:38:17;50;39;24
33948;PMS7003;20229;49.856;19.030;2024-02-23T16:43:31;50;37;23
33948;PMS7003;20229;49.856;19.030;2024-02-23T16:48:47;49;38;23
33948;PMS7003;20229;49.856;19.030;2024-02-23T16:54:00;48;37;24
33948;PMS7003;20229;49.856;19.030;2024-02-23T16:59:14;52;38;24
33948;PMS7003;20229;49.856;19.030;2024-02-23T17:04:28;49;37;23
33948;PMS7003;20229;49.856;19.030;2024-02-23T17:09:43;53;43;27
33948;PMS7003;20229;49.856;19.030;2024-02-23T17:15:01;54;42;26
33948;PMS7003;20229;49.856;19.030;2024-02-23T17:20:17;57;47;27
33948;PMS7003;20229;49.856;19.030;2024-02-23T17:25:31;59;51;31
33948;PMS7003;20229;49.856;19.030;2024-02-23T17:30:48;62;52;30
33948;PMS7003;20229;49.856;19.030;2024-02-23T17:36:03;59;51;30
33948;PMS7003;20229;49.856;19.030;2024-02-23T17:41:17;71;61;36
33948;PMS7003;20229;49.856;19.030;2024-02-23T17:46:31;74;63;37
33948;PMS7003;20229;49.856;19.030;2024-02-23T17:51:45;77;66;37
33948;PMS7003;20229;49.856;19.030;2024-02-23T17:56:59;72;63;37
33948;PMS7003;20229;49.856;19.030;2024-02-23T18:02:14;73;64;38
33948;PMS7003;20229;49.856;19.030;2024-02-23T18:07:27;70;60;34
33948;PMS7003;20229;49.856;19.030;2024-02-23T18:12:42;73;66;37
33948;PMS7003;20229;49.856;19.030;2024-02-23T18:17:57;86;75;41
33948;PMS7003;20229;49.856;19.030;2024-02-23T18:23:12;82;71;40
33948;PMS7003;20229;49.856;19.030;2024-02-23T18:28:26;78;66;37
33948;PMS7003;20229;49.856;19.030;2024-02-23T18:33:44;83;72;40
33948;PMS7003;20229;49.856;19.030;2024-02-23T18:38:59;59;48;30
33948;PMS7003;20229;49.856;19.030;2024-02-23T18:44:13;52;39;24
33948;PMS7003;20229;49.856;19.030;2024-02-23T18:49:27;23;20;12
33948;PMS7003;20229;49.856;19.030;2024-02-23T18:54:47;25;23;14
33948;PMS7003;20229;49.856;19.030;2024-02-23T19:00:03;25;19;13
33948;PMS7003;20229;49.856;19.030;2024-02-23T19:05:19;13;13;8
33948;PMS7003;20229;49.856;19.030;2024-02-23T19:10:35;9;9;5
33948;PMS7003;20229;49.856;19.030;2024-02-23T19:15:49;9;7;5
33948;PMS7003;20229;49.856;19.030;2024-02-23T19:21:04;11;9;6
33948;PMS7003;20229;49.856;19.030;2024-02-23T19:26:19;8;7;5
33948;PMS7003;20229;49.856;19.030;2024-02-23T19:31:33;10;7;4
33948;PMS7003;20229;49.856;19.030;2024-02-23T19:36:46;9;8;5
33948;PMS7003;20229;49.856;19.030;2024-02-23T19:42:02;11;8;5
33948;PMS7003;20229;49.856;19.030;2024-02-23T19:47:16;4;4;3
33948;PMS7003;20229;49.856;19.030;2024-02-23T19:52:30;4;4;3
33948;PMS7003;20229;49.856;19.030;2024-02-23T19:57:44;5;5;3
33948;PMS7003;20229;49.856;19.030;2024-02-23T20:02:58;6;5;4
33948;PMS7003;20229;49.856;19.030;2024-02-23T20:08:13;8;4;3
33948;PMS7003;20229;49.856;19.030;2024-02-23T20:13:30;6;4;2
33948;PMS7003;20229;49.856;19.030;2024-02-23T20:18:43;3;2;1
33948;PMS7003;20229;49.856;19.030;2024-02-23T20:23:57;2;2;1
33948;PMS7003;20229;49.856;19.030;2024-02-23T20:29:12;3;3;1
33948;PMS7003;20229;49.856;19.030;2024-02-23T20:34:27;1;1;0
33948;PMS7003;20229;49.856;19.030;2024-02-23T20:39:41;1;0;0
33948;PMS7003;20229;49.856;19.030;2024-02-23T20:44:54;2;2;1
33948;PMS7003;20229;49.856;19.030;2024-02-23T20:50:09;1;1;0
33948;PMS7003;20229;49.856;19.030;2024-02-23T20:55:24;1;1;0
33948;PMS7003;20229;49.856;19.030;2024-02-23T21:00:38;0;0;0
33948;PMS7003;20229;49.856;19.030;2024-02-23T21:05:52;1;1;0
33948;PMS7003;20229;49.856;19.030;2024-02-23T21:11:06;4;3;2
33948;PMS7003;20229;49.856;19.030;2024-02-23T21:16:20;3;3;1
33948;PMS7003;20229;49.856;19.030;2024-02-23T21:21:33;6;6;3
33948;PMS7003;20229;49.856;19.030;2024-02-23T21:26:49;3;2;1
33948;PMS7003;20229;49.856;19.030;2024-02-23T21:32:08;6;5;2
33948;PMS7003;20229;49.856;19.030;2024-02-23T21:37:22;3;2;1
33948;PMS7003;20229;49.856;19.030;2024-02-23T21:42:37;3;2;1
33948;PMS7003;20229;49.856;19.030;2024-02-23T21:53:44;1;1;1
33948;PMS7003;20229;49.856;19.030;2024-02-23T21:58:58;6;4;2
33948;PMS7003;20229;49.856;19.030;2024-02-23T22:04:12;4;3;2
33948;PMS7003;20229;49.856;19.030;2024-02-23T22:09:26;5;4;2
33948;PMS7003;20229;49.856;19.030;2024-02-23T22:14:40;5;5;2
33948;PMS7003;20229;49.856;19.030;2024-02-23T22:19:54;6;5;3
33948;PMS7003;20229;49.856;19.030;2024-02-23T22:25:08;6;6;3
33948;PMS7003;20229;49.856;19.030;2024-02-23T22:30:23;5;5;4
33948;PMS7003;20229;49.856;19.030;2024-02-23T22:35:40;8;7;5
33948;PMS7003;20229;49.856;19.030;2024-02-23T22:40:54;8;7;5
33948;PMS7003;20229;49.856;19.030;2024-02-23T22:46:11;6;6;5
33948;PMS7003;20229;49.856;19.030;2024-02-23T22:51:25;9;8;5
33948;PMS7003;20229;49.856;19.030;2024-02-23T22:56:39;9;7;5
33948;PMS7003;20229;49.856;19.030;2024-02-23T23:01:53;7;6;5
33948;PMS7003;20229;49.856;19.030;2024-02-23T23:07:07;8;8;5
33948;PMS7003;20229;49.856;19.030;2024-02-23T23:12:21;8;8;5
33948;PMS7003;20229;49.856;19.030;2024-02-23T23:17:34;9;8;5
33948;PMS7003;20229;49.856;19.030;2024-02-23T23:22:48;13;10;6
33948;PMS7003;20229;49.856;19.030;2024-02-23T23:28:02;11;8;5
33948;PMS7003;20229;49.856;19.030;2024-02-23T23:33:17;10;10;6
33948;PMS7003;20229;49.856;19.030;2024-02-23T23:38:33;10;8;5
33948;PMS7003;20229;49.856;19.030;2024-02-23T23:43:47;10;10;7
33948;PMS7003;20229;49.856;19.030;2024-02-23T23:49:01;10;9;6
33948;PMS7003;20229;49.856;19.030;2024-02-23T23:54:14;12;9;6
33948;PMS7003;20229;49.856;19.030;2024-02-23T23:59:28;11;9;7
